sensor_id;sensor_type;location;lat;lon;timestamp;P1;durP1;ratioP1;P2;durP2;ratioP2
42724;SDS011;28369;44.046;23.014;2023-03-01T00:01:25;65.47;;;38.22;;
42724;SDS011;28369;44.046;23.014;2023-03-01T00:03:52;74.53;;;40.22;;
42724;SDS011;28369;44.046;23.014;2023-03-01T00:06:19;68.10;;;39.83;;
42724;SDS011;28369;44.046;23.014;2023-03-01T00:08:45;56.05;;;36.75;;
42724;SDS011;28369;44.046;23.014;2023-03-01T00:11:15;60.80;;;36.45;;
42724;SDS011;28369;44.046;23.014;2023-03-01T00:13:43;64.03;;;37.13;;
42724;SDS011;28369;44.046;23.014;2023-03-01T00:16:12;59.67;;;36.42;;
42724;SDS011;28369;44.046;23.014;2023-03-01T00:18:42;57.00;;;35.30;;
42724;SDS011;28369;44.046;23.014;2023-03-01T00:21:08;57.08;;;35.83;;
42724;SDS011;28369;44.046;23.014;2023-03-01T00:23:34;60.08;;;39.00;;
42724;SDS011;28369;44.046;23.014;2023-03-01T00:26:00;59.17;;;37.65;;
42724;SDS011;28369;44.046;23.014;2023-03-01T00:28:26;56.65;;;37.20;;
42724;SDS011;28369;44.046;23.014;2023-03-01T00:30:52;53.08;;;35.17;;
42724;SDS011;28369;44.046;23.014;2023-03-01T00:33:17;56.78;;;36.15;;
42724;SDS011;28369;44.046;23.014;2023-03-01T00:35:43;60.08;;;37.92;;
42724;SDS011;28369;44.046;23.014;2023-03-01T00:38:09;57.30;;;36.03;;
42724;SDS011;28369;44.046;23.014;2023-03-01T00:40:35;57.17;;;36.28;;
42724;SDS011;28369;44.046;23.014;2023-03-01T00:43:01;58.78;;;34.92;;
42724;SDS011;28369;44.046;23.014;2023-03-01T00:45:27;54.47;;;34.17;;
42724;SDS011;28369;44.046;23.014;2023-03-01T00:47:54;56.47;;;34.85;;
42724;SDS011;28369;44.046;23.014;2023-03-01T00:50:19;55.72;;;36.72;;
42724;SDS011;28369;44.046;23.014;2023-03-01T00:52:45;52.80;;;34.25;;
42724;SDS011;28369;44.046;23.014;2023-03-01T00:55:11;57.47;;;35.67;;
42724;SDS011;28369;44.046;23.014;2023-03-01T00:57:37;61.63;;;35.97;;
42724;SDS011;28369;44.046;23.014;2023-03-01T01:00:06;55.10;;;35.15;;
42724;SDS011;28369;44.046;23.014;2023-03-01T01:02:32;51.40;;;34.35;;
42724;SDS011;28369;44.046;23.014;2023-03-01T01:04:59;50.60;;;32.55;;
42724;SDS011;28369;44.046;23.014;2023-03-01T01:07:25;52.80;;;32.88;;
42724;SDS011;28369;44.046;23.014;2023-03-01T01:09:50;53.38;;;33.55;;
42724;SDS011;28369;44.046;23.014;2023-03-01T01:12:16;53.28;;;34.78;;
42724;SDS011;28369;44.046;23.014;2023-03-01T01:14:41;53.88;;;34.22;;
42724;SDS011;28369;44.046;23.014;2023-03-01T01:17:07;51.60;;;35.03;;
42724;SDS011;28369;44.046;23.014;2023-03-01T01:19:34;56.58;;;36.25;;
42724;SDS011;28369;44.046;23.014;2023-03-01T01:21:59;56.20;;;34.28;;
42724;SDS011;28369;44.046;23.014;2023-03-01T01:24:25;56.60;;;34.72;;
42724;SDS011;28369;44.046;23.014;2023-03-01T01:26:50;58.13;;;33.38;;
42724;SDS011;28369;44.046;23.014;2023-03-01T01:29:16;56.90;;;33.80;;
42724;SDS011;28369;44.046;23.014;2023-03-01T01:31:42;56.13;;;33.83;;
42724;SDS011;28369;44.046;23.014;2023-03-01T01:34:08;53.13;;;33.35;;
42724;SDS011;28369;44.046;23.014;2023-03-01T01:36:52;50.15;;;33.30;;
42724;SDS011;28369;44.046;23.014;2023-03-01T01:39:19;45.10;;;31.90;;
42724;SDS011;28369;44.046;23.014;2023-03-01T01:41:45;53.20;;;31.75;;
42724;SDS011;28369;44.046;23.014;2023-03-01T01:44:24;43.13;;;30.98;;
42724;SDS011;28369;44.046;23.014;2023-03-01T01:47:04;45.88;;;32.13;;
42724;SDS011;28369;44.046;23.014;2023-03-01T01:49:38;46.30;;;29.00;;
42724;SDS011;28369;44.046;23.014;2023-03-01T01:58:15;43.90;;;29.00;;
42724;SDS011;28369;44.046;23.014;2023-03-01T02:00:34;47.92;;;29.52;;
42724;SDS011;28369;44.046;23.014;2023-03-01T02:03:01;46.70;;;28.98;;
42724;SDS011;28369;44.046;23.014;2023-03-01T02:08:05;48.60;;;31.45;;
42724;SDS011;28369;44.046;23.014;2023-03-01T02:10:32;44.30;;;29.40;;
42724;SDS011;28369;44.046;23.014;2023-03-01T02:13:00;48.30;;;31.08;;
42724;SDS011;28369;44.046;23.014;2023-03-01T02:15:26;47.22;;;29.08;;
42724;SDS011;28369;44.046;23.014;2023-03-01T02:17:52;50.03;;;29.92;;
42724;SDS011;28369;44.046;23.014;2023-03-01T02:23:10;46.28;;;30.50;;
42724;SDS011;28369;44.046;23.014;2023-03-01T02:25:56;48.55;;;29.15;;
42724;SDS011;28369;44.046;23.014;2023-03-01T02:28:46;47.40;;;30.20;;
42724;SDS011;28369;44.046;23.014;2023-03-01T02:31:16;50.92;;;31.55;;
42724;SDS011;28369;44.046;23.014;2023-03-01T02:34:03;50.15;;;30.70;;
42724;SDS011;28369;44.046;23.014;2023-03-01T02:36:40;46.00;;;29.23;;
42724;SDS011;28369;44.046;23.014;2023-03-01T02:39:46;45.58;;;29.25;;
42724;SDS011;28369;44.046;23.014;2023-03-01T02:42:17;49.00;;;30.67;;
42724;SDS011;28369;44.046;23.014;2023-03-01T02:44:48;45.55;;;29.73;;
42724;SDS011;28369;44.046;23.014;2023-03-01T02:47:14;42.85;;;27.00;;
42724;SDS011;28369;44.046;23.014;2023-03-01T02:49:40;42.95;;;27.75;;
42724;SDS011;28369;44.046;23.014;2023-03-01T02:55:12;44.28;;;28.25;;
42724;SDS011;28369;44.046;23.014;2023-03-01T02:57:41;44.63;;;27.88;;
42724;SDS011;28369;44.046;23.014;2023-03-01T03:00:10;43.55;;;27.77;;
42724;SDS011;28369;44.046;23.014;2023-03-01T03:06:05;48.77;;;31.33;;
42724;SDS011;28369;44.046;23.014;2023-03-01T03:08:31;47.28;;;30.42;;
42724;SDS011;28369;44.046;23.014;2023-03-01T03:10:56;45.83;;;28.98;;
42724;SDS011;28369;44.046;23.014;2023-03-01T03:13:22;47.42;;;32.00;;
42724;SDS011;28369;44.046;23.014;2023-03-01T03:15:52;49.03;;;31.63;;
42724;SDS011;28369;44.046;23.014;2023-03-01T03:21:40;49.47;;;33.63;;
42724;SDS011;28369;44.046;23.014;2023-03-01T03:24:06;46.78;;;31.23;;
42724;SDS011;28369;44.046;23.014;2023-03-01T03:26:31;46.67;;;31.05;;
42724;SDS011;28369;44.046;23.014;2023-03-01T03:28:57;49.05;;;31.52;;
42724;SDS011;28369;44.046;23.014;2023-03-01T03:31:24;47.25;;;30.42;;
42724;SDS011;28369;44.046;23.014;2023-03-01T03:33:50;48.72;;;30.77;;
42724;SDS011;28369;44.046;23.014;2023-03-01T03:36:16;48.85;;;30.52;;
42724;SDS011;28369;44.046;23.014;2023-03-01T03:38:43;45.45;;;30.77;;
42724;SDS011;28369;44.046;23.014;2023-03-01T03:41:08;46.85;;;30.20;;
42724;SDS011;28369;44.046;23.014;2023-03-01T03:43:35;39.83;;;26.33;;
42724;SDS011;28369;44.046;23.014;2023-03-01T03:46:02;40.17;;;27.35;;
42724;SDS011;28369;44.046;23.014;2023-03-01T03:48:31;46.53;;;29.85;;
42724;SDS011;28369;44.046;23.014;2023-03-01T03:51:00;53.53;;;32.38;;
42724;SDS011;28369;44.046;23.014;2023-03-01T03:53:26;45.60;;;29.02;;
42724;SDS011;28369;44.046;23.014;2023-03-01T03:55:53;76.32;;;49.88;;
42724;SDS011;28369;44.046;23.014;2023-03-01T03:58:20;45.85;;;29.42;;
42724;SDS011;28369;44.046;23.014;2023-03-01T04:00:49;46.60;;;32.20;;
42724;SDS011;28369;44.046;23.014;2023-03-01T04:03:16;56.00;;;34.10;;
42724;SDS011;28369;44.046;23.014;2023-03-01T04:05:43;48.70;;;31.05;;
42724;SDS011;28369;44.046;23.014;2023-03-01T04:08:09;48.60;;;32.50;;
42724;SDS011;28369;44.046;23.014;2023-03-01T04:10:38;43.38;;;29.45;;
42724;SDS011;28369;44.046;23.014;2023-03-01T04:13:06;45.70;;;29.23;;
42724;SDS011;28369;44.046;23.014;2023-03-01T04:15:34;53.00;;;33.28;;
42724;SDS011;28369;44.046;23.014;2023-03-01T04:18:00;49.72;;;31.30;;
42724;SDS011;28369;44.046;23.014;2023-03-01T04:20:28;48.40;;;32.63;;
42724;SDS011;28369;44.046;23.014;2023-03-01T04:22:59;49.47;;;33.03;;
42724;SDS011;28369;44.046;23.014;2023-03-01T04:25:35;50.55;;;30.83;;
42724;SDS011;28369;44.046;23.014;2023-03-01T04:28:41;44.72;;;29.90;;
42724;SDS011;28369;44.046;23.014;2023-03-01T04:31:12;47.20;;;29.58;;
42724;SDS011;28369;44.046;23.014;2023-03-01T04:33:43;44.55;;;28.95;;
42724;SDS011;28369;44.046;23.014;2023-03-01T04:36:11;44.92;;;30.38;;
42724;SDS011;28369;44.046;23.014;2023-03-01T04:38:38;44.65;;;29.52;;
42724;SDS011;28369;44.046;23.014;2023-03-01T04:41:05;45.55;;;30.55;;
42724;SDS011;28369;44.046;23.014;2023-03-01T04:43:31;54.50;;;31.25;;
42724;SDS011;28369;44.046;23.014;2023-03-01T04:46:08;54.15;;;31.17;;
42724;SDS011;28369;44.046;23.014;2023-03-01T04:48:37;56.40;;;33.25;;
42724;SDS011;28369;44.046;23.014;2023-03-01T04:51:04;59.95;;;38.72;;
42724;SDS011;28369;44.046;23.014;2023-03-01T04:53:30;44.08;;;29.55;;
42724;SDS011;28369;44.046;23.014;2023-03-01T04:55:57;43.80;;;29.10;;
42724;SDS011;28369;44.046;23.014;2023-03-01T04:58:23;52.00;;;34.53;;
42724;SDS011;28369;44.046;23.014;2023-03-01T05:00:50;49.83;;;31.35;;
42724;SDS011;28369;44.046;23.014;2023-03-01T05:03:15;51.72;;;31.33;;
42724;SDS011;28369;44.046;23.014;2023-03-01T05:05:43;48.35;;;29.92;;
42724;SDS011;28369;44.046;23.014;2023-03-01T05:08:09;58.88;;;34.90;;
42724;SDS011;28369;44.046;23.014;2023-03-01T05:10:43;87.20;;;55.08;;
42724;SDS011;28369;44.046;23.014;2023-03-01T05:13:18;80.60;;;48.90;;
42724;SDS011;28369;44.046;23.014;2023-03-01T05:18:24;58.97;;;35.88;;
42724;SDS011;28369;44.046;23.014;2023-03-01T05:20:54;49.03;;;32.70;;
42724;SDS011;28369;44.046;23.014;2023-03-01T05:23:21;47.40;;;31.92;;
42724;SDS011;28369;44.046;23.014;2023-03-01T05:25:48;51.78;;;33.55;;
42724;SDS011;28369;44.046;23.014;2023-03-01T05:28:14;52.25;;;33.38;;
42724;SDS011;28369;44.046;23.014;2023-03-01T05:30:40;59.30;;;39.35;;
42724;SDS011;28369;44.046;23.014;2023-03-01T05:33:06;51.80;;;32.78;;
42724;SDS011;28369;44.046;23.014;2023-03-01T05:35:38;55.15;;;35.40;;
42724;SDS011;28369;44.046;23.014;2023-03-01T05:38:05;57.47;;;34.30;;
42724;SDS011;28369;44.046;23.014;2023-03-01T05:40:32;62.42;;;36.75;;
42724;SDS011;28369;44.046;23.014;2023-03-01T05:42:58;56.70;;;35.30;;
42724;SDS011;28369;44.046;23.014;2023-03-01T05:45:24;51.97;;;34.55;;
42724;SDS011;28369;44.046;23.014;2023-03-01T05:47:51;56.05;;;34.53;;
42724;SDS011;28369;44.046;23.014;2023-03-01T05:50:18;56.00;;;35.35;;
42724;SDS011;28369;44.046;23.014;2023-03-01T05:52:46;51.08;;;31.65;;
42724;SDS011;28369;44.046;23.014;2023-03-01T05:55:13;43.45;;;28.73;;
42724;SDS011;28369;44.046;23.014;2023-03-01T05:57:40;46.40;;;30.17;;
42724;SDS011;28369;44.046;23.014;2023-03-01T06:00:06;46.90;;;29.98;;
42724;SDS011;28369;44.046;23.014;2023-03-01T06:02:32;45.47;;;28.83;;
42724;SDS011;28369;44.046;23.014;2023-03-01T06:04:57;43.67;;;29.15;;
42724;SDS011;28369;44.046;23.014;2023-03-01T06:07:23;45.75;;;29.77;;
42724;SDS011;28369;44.046;23.014;2023-03-01T06:09:48;45.85;;;28.58;;
42724;SDS011;28369;44.046;23.014;2023-03-01T06:12:14;56.08;;;35.25;;
42724;SDS011;28369;44.046;23.014;2023-03-01T06:14:39;45.15;;;29.10;;
42724;SDS011;28369;44.046;23.014;2023-03-01T06:17:05;40.10;;;26.40;;
42724;SDS011;28369;44.046;23.014;2023-03-01T06:19:30;46.60;;;31.77;;
42724;SDS011;28369;44.046;23.014;2023-03-01T06:21:55;49.65;;;33.13;;
42724;SDS011;28369;44.046;23.014;2023-03-01T06:24:21;42.80;;;28.65;;
42724;SDS011;28369;44.046;23.014;2023-03-01T06:26:46;42.08;;;27.75;;
42724;SDS011;28369;44.046;23.014;2023-03-01T06:29:12;40.88;;;27.45;;
42724;SDS011;28369;44.046;23.014;2023-03-01T06:31:37;38.42;;;25.08;;
42724;SDS011;28369;44.046;23.014;2023-03-01T06:34:03;39.35;;;27.30;;
42724;SDS011;28369;44.046;23.014;2023-03-01T06:36:28;43.33;;;28.33;;
42724;SDS011;28369;44.046;23.014;2023-03-01T06:38:53;37.92;;;27.65;;
42724;SDS011;28369;44.046;23.014;2023-03-01T06:41:19;39.88;;;27.42;;
42724;SDS011;28369;44.046;23.014;2023-03-01T06:43:44;43.25;;;28.50;;
42724;SDS011;28369;44.046;23.014;2023-03-01T06:46:10;45.60;;;29.83;;
42724;SDS011;28369;44.046;23.014;2023-03-01T06:48:35;43.35;;;28.83;;
42724;SDS011;28369;44.046;23.014;2023-03-01T06:51:01;45.03;;;29.35;;
42724;SDS011;28369;44.046;23.014;2023-03-01T06:53:27;44.97;;;29.00;;
42724;SDS011;28369;44.046;23.014;2023-03-01T06:55:54;41.30;;;26.88;;
42724;SDS011;28369;44.046;23.014;2023-03-01T06:58:25;37.67;;;26.77;;
42724;SDS011;28369;44.046;23.014;2023-03-01T07:00:50;42.35;;;28.42;;
42724;SDS011;28369;44.046;23.014;2023-03-01T07:03:16;39.95;;;26.67;;
42724;SDS011;28369;44.046;23.014;2023-03-01T07:05:41;40.78;;;27.13;;
42724;SDS011;28369;44.046;23.014;2023-03-01T07:08:07;46.00;;;29.60;;
42724;SDS011;28369;44.046;23.014;2023-03-01T07:10:33;39.05;;;27.83;;
42724;SDS011;28369;44.046;23.014;2023-03-01T07:12:58;40.78;;;29.23;;
42724;SDS011;28369;44.046;23.014;2023-03-01T07:15:25;42.47;;;28.35;;
42724;SDS011;28369;44.046;23.014;2023-03-01T07:17:51;37.65;;;26.45;;
42724;SDS011;28369;44.046;23.014;2023-03-01T07:20:17;39.88;;;28.02;;
42724;SDS011;28369;44.046;23.014;2023-03-01T07:22:44;39.63;;;28.17;;
42724;SDS011;28369;44.046;23.014;2023-03-01T07:25:10;35.72;;;24.70;;
42724;SDS011;28369;44.046;23.014;2023-03-01T07:27:36;41.33;;;28.27;;
42724;SDS011;28369;44.046;23.014;2023-03-01T07:30:02;33.60;;;25.48;;
42724;SDS011;28369;44.046;23.014;2023-03-01T07:32:28;36.38;;;26.77;;
42724;SDS011;28369;44.046;23.014;2023-03-01T07:34:53;32.35;;;25.40;;
42724;SDS011;28369;44.046;23.014;2023-03-01T07:37:19;35.53;;;24.65;;
42724;SDS011;28369;44.046;23.014;2023-03-01T07:39:45;34.67;;;26.13;;
42724;SDS011;28369;44.046;23.014;2023-03-01T07:42:10;42.17;;;27.08;;
42724;SDS011;28369;44.046;23.014;2023-03-01T07:44:36;35.90;;;26.00;;
42724;SDS011;28369;44.046;23.014;2023-03-01T07:47:02;36.42;;;26.48;;
42724;SDS011;28369;44.046;23.014;2023-03-01T07:49:29;38.88;;;27.00;;
42724;SDS011;28369;44.046;23.014;2023-03-01T07:51:54;39.35;;;25.67;;
42724;SDS011;28369;44.046;23.014;2023-03-01T07:54:20;42.47;;;27.50;;
42724;SDS011;28369;44.046;23.014;2023-03-01T08:00:09;39.92;;;26.73;;
42724;SDS011;28369;44.046;23.014;2023-03-01T08:02:36;44.05;;;28.52;;
42724;SDS011;28369;44.046;23.014;2023-03-01T08:05:02;38.65;;;26.90;;
42724;SDS011;28369;44.046;23.014;2023-03-01T08:07:27;35.58;;;24.92;;
42724;SDS011;28369;44.046;23.014;2023-03-01T08:09:53;36.78;;;26.08;;
42724;SDS011;28369;44.046;23.014;2023-03-01T08:12:18;45.20;;;28.33;;
42724;SDS011;28369;44.046;23.014;2023-03-01T08:14:44;31.20;;;23.65;;
42724;SDS011;28369;44.046;23.014;2023-03-01T08:17:09;43.30;;;27.27;;
42724;SDS011;28369;44.046;23.014;2023-03-01T08:19:35;36.63;;;25.52;;
42724;SDS011;28369;44.046;23.014;2023-03-01T08:22:01;38.30;;;26.77;;
42724;SDS011;28369;44.046;23.014;2023-03-01T08:24:27;41.97;;;28.00;;
42724;SDS011;28369;44.046;23.014;2023-03-01T08:26:53;39.22;;;27.92;;
42724;SDS011;28369;44.046;23.014;2023-03-01T08:29:19;40.65;;;26.08;;
42724;SDS011;28369;44.046;23.014;2023-03-01T08:31:45;37.13;;;27.42;;
42724;SDS011;28369;44.046;23.014;2023-03-01T08:34:12;36.55;;;26.00;;
42724;SDS011;28369;44.046;23.014;2023-03-01T08:36:41;37.50;;;25.13;;
42724;SDS011;28369;44.046;23.014;2023-03-01T08:39:10;39.45;;;25.77;;
42724;SDS011;28369;44.046;23.014;2023-03-01T08:41:36;38.90;;;26.13;;
42724;SDS011;28369;44.046;23.014;2023-03-01T08:44:03;33.50;;;23.83;;
42724;SDS011;28369;44.046;23.014;2023-03-01T08:46:30;35.80;;;25.33;;
42724;SDS011;28369;44.046;23.014;2023-03-01T08:48:57;39.53;;;25.67;;
42724;SDS011;28369;44.046;23.014;2023-03-01T08:51:22;37.03;;;25.30;;
42724;SDS011;28369;44.046;23.014;2023-03-01T08:53:49;34.10;;;23.55;;
